Flight Track Log - Related Links

Times and Time Zones

All times are in EDT time to prevent confusion due to time zone crossing. See the EJA806 flight status page for this flight to view local times or setup timezone preferences in your user account.

Time Position Orientation Groundspeed Altitude Reporting Facility
EDT Latitude Longitude Course Direction KTS MPH feet Rate Location/Type
Thu 03:17:59 PM 39.8167 -89.6608 194° South 194 223 2,300  Level Kansas City Center
Thu 03:19:01 PM 39.7578 -89.6983 206° Southwest 198 228 6,100 3,000 Climbing Kansas City Center
Thu 03:20:03 PM 39.7044 -89.7133 192° South 216 249 8,500 2,516 Climbing Kansas City Center
Thu 03:21:05 PM 39.6339 -89.7308 191° South 250 288 11,300 3,000 Climbing Kansas City Center
Thu 03:22:07 PM 39.5472 -89.7547 192° South 264 304 14,700 2,468 Climbing Kansas City Center
Thu 03:23:00 PM 39.2153 -89.8282 194° South  Level FlightAware Approximate
Thu 03:23:09 PM 39.4692 -89.7750 191° South 281 323 16,400  Level Kansas City Center
Thu 03:24:11 PM 39.3850 -89.7975 192° South 303 349 18,100 1,597 Climbing Kansas City Center
Thu 03:25:13 PM 39.2997 -89.8186 191° South 309 356 19,700 1,500 Climbing Kansas City Center
Thu 03:26:15 PM 39.2103 -89.8425 192° South 323 372 21,200 1,500 Climbing Kansas City Center
Thu 03:27:17 PM 39.1003 -89.8728 192° South 348 400 22,800 1,452 Climbing Kansas City Center
Thu 03:28:19 PM 38.9939 -89.8997 191° South 361 415 24,200 1,258 Climbing Kansas City Center
Thu 03:29:21 PM 38.8942 -89.9239 191° South 370 426 25,400 1,200 Climbing Kansas City Center
Thu 03:30:24 PM 38.7914 -89.9508 192° South 373 429 26,700 1,248 Climbing Kansas City Center
Thu 03:31:26 PM 38.6881 -89.9758 191° South 375 432 28,000 1,161 Climbing Kansas City Center
Thu 03:32:28 PM 38.5850 -90.0033 192° South 374 430 29,100 1,016 Climbing Kansas City Center
Thu 03:33:30 PM 38.4800 -90.0292 191° South 379 436 30,100 968 Climbing Kansas City Center
Thu 03:34:32 PM 38.3736 -90.0567 191° South 385 443 31,100 919 Climbing Kansas City Center
Thu 03:35:34 PM 38.2683 -90.0839 191° South 385 443 32,000 435 Climbing Kansas City Center
Thu 03:36:36 PM 38.1392 -90.1158 191° South 390 449 32,000  Level Kansas City Center
Thu 03:37:38 PM 38.0300 -90.1442 192° South 397 457 32,000  Level Kansas City Center
Thu 03:38:40 PM 37.9206 -90.1708 191° South 400 460 32,000  Level Kansas City Center
Thu 03:39:42 PM 37.8114 -90.2014 192° South 401 461 32,000  Level Kansas City Center
Thu 03:40:44 PM 37.7025 -90.2289 191° South 398 458 32,000  Level Kansas City Center
Thu 03:41:46 PM 37.5975 -90.2714 198° South 394 453 32,000  Level Kansas City Center
Thu 03:42:48 PM 37.4728 -90.3303 201° Southwest 397 457 32,000  Level Kansas City Center
Thu 03:43:50 PM 37.3706 -90.3794 201° Southwest 394 453 32,000  Level Kansas City Center
Thu 03:44:32 PM 37.2944 -90.4169 201° Southwest 404 465 32,000  Level Memphis Center
Thu 03:45:32 PM 37.1903 -90.4636 200° South 404 465 32,000  Level Memphis Center
Thu 03:46:32 PM 37.0881 -90.5128 201° Southwest 399 459 32,000 -250 Level Memphis Center
Thu 03:47:32 PM 36.9858 -90.5594 200° South 399 459 31,500 -850 Descending Memphis Center
Thu 03:48:32 PM 36.8858 -90.6058 200° South 394 453 30,300 -1,400 Descending Memphis Center
Thu 03:49:32 PM 36.7794 -90.6522 199° South 394 453 28,700 -1,500 Descending Memphis Center
Thu 03:50:32 PM 36.6708 -90.7011 200° South 401 461 27,300 -1,450 Descending Memphis Center
Thu 03:51:32 PM 36.5686 -90.7497 201° Southwest 409 471 25,800 -1,500 Descending Memphis Center
Thu 03:52:32 PM 36.4664 -90.7956 200° South 404 465 24,300 -900 Descending Memphis Center
Thu 03:53:32 PM 36.3642 -90.8389 199° South 404 465 24,000 -150 Descending Memphis Center
Thu 03:54:32 PM 36.2617 -90.8872 201° Southwest 399 459 24,000  Level Memphis Center
Thu 03:55:32 PM 36.1594 -90.9353 201° Southwest 399 459 24,000 -50 Level Memphis Center
Thu 03:56:32 PM 36.0508 -90.9450 184° South 387 445 23,900 -1,100 Descending Memphis Center
Thu 03:57:32 PM 35.9428 -90.9133 167° South 393 452 21,800 -2,100 Descending Memphis Center
Thu 03:58:32 PM 35.8344 -90.8844 168° South 398 458 19,700 -2,100 Descending Memphis Center
Thu 03:59:32 PM 35.7281 -90.8583 169° South 398 458 17,600 -1,950 Descending Memphis Center
Thu 04:00:32 PM 35.6447 -90.8347 167° South 369 425 15,800 -1,800 Descending Memphis Center
Thu 04:01:32 PM 35.5469 -90.8086 168° South 355 409 14,000 -1,800 Descending Memphis Center
Thu 04:02:32 PM 35.4656 -90.7675 158° South 330 380 12,200 -1,850 Descending Memphis Center
Thu 04:03:32 PM 35.4242 -90.6628 116° Southeast 315 362 10,300 -1,100 Descending Memphis Center
Thu 04:04:32 PM 35.3972 -90.5531 107° East 315 362 10,000 -600 Descending Memphis Center
Thu 04:05:32 PM 35.4017 -90.4461 87° East 315 362 9,100 -1,000 Descending Memphis Center
Thu 04:06:32 PM 35.4142 -90.3417 82° East 310 357 8,000 -1,300 Descending Memphis Center
Thu 04:07:32 PM 35.4142 -90.2425 90° East 304 350 6,500 -1,450 Descending Memphis Center
Thu 04:08:32 PM 35.3994 -90.1481 101° East 284 327 5,100 -750 Descending Memphis Center
Thu 04:09:32 PM 35.3950 -90.0692 94° East 251 289 5,000 -500 Descending Memphis Center
Thu 04:10:32 PM 35.3594 -90.0183 131° Southeast 203 234 4,100 -759 Descending Memphis Center
Thu 04:10:51 PM 35.3500 -90.0000 122° Southeast 204 235 4,000 -82 Descending KMEM
Thu 04:11:45 PM 35.3000 -89.9667 151° Southeast 192 221 4,000  Level KMEM
Thu 04:12:45 PM 35.2500 -89.9833 195° South 182 209 4,000 -300 Level KMEM
Thu 04:13:45 PM 35.2000 -89.9667 165° South 184 212 3,400 -842 Descending KMEM
Thu 04:14:39 PM 35.1667 -89.9667 180° South 184 212 2,400 -1,000 Descending KMEM
Thu 04:15:39 PM 35.1167 -89.9667 180° South 175 201 1,500 -774 Descending KMEM
Thu 04:16:43 PM 35.0667 -89.9667 180° South 100 115 800 -656 Descending KMEM
Thu 04:18:00 PM 35.0424 -89.9767 129° Southeast  Level Estimated
Thu 04:25:00 PM 35.0424 -89.9767 129° Southeast  Level Estimated
Thu 04:26:00 PM 35.0424 -89.9767 129° Southeast  Level Estimated
Thu 04:27:00 PM 35.0424 -89.9767 129° Southeast  Level Estimated
Thu 04:28:00 PM 35.0424 -89.9767 129° Southeast  Level Estimated
Thu 04:29:00 PM 35.0424 -89.9767 129° Southeast  Level Estimated
Thu 04:30:00 PM 35.0424 -89.9767 129° Southeast  Level Estimated
Thu 04:31:00 PM 35.0424 -89.9767 129° Southeast  Level Estimated

Login

Don't have an account? Register now (free) for customized features, flight alerts, and more!